Time;durP1;ratioP1;P1;durP2;ratioP2;P2;SDS_P1;SDS_P2;PMS_P1;PMS_P2;Temp;Humidity;BMP_temperature;BMP_pressure;BME280_temperature;BME280_humidity;BME280_pressure;Samples;Min_cycle;Max_cycle;Signal;HPM_P1;HPM_P2
2022/03/02 00:02:06;;;;;;;34.42;21.90;;;6.40;99.90;;;;;;5131860;27;20051;-67
2022/03/02 00:04:32;;;;;;;35.75;23.20;;;6.40;99.90;;;;;;5149046;27;20494;-67
2022/03/02 00:06:58;;;;;;;36.95;22.38;;;6.40;99.90;;;;;;5130027;27;20098;-67
2022/03/02 00:09:23;;;;;;;37.05;22.45;;;6.40;99.90;;;;;;5149501;27;20062;-67
2022/03/02 00:11:49;;;;;;;38.47;23.27;;;6.40;99.90;;;;;;5131702;27;20041;-67
2022/03/02 00:14:15;;;;;;;37.78;22.90;;;6.40;99.90;;;;;;5143243;27;20035;-69
2022/03/02 00:16:40;;;;;;;34.67;21.77;;;6.40;99.90;;;;;;5142163;27;20035;-67
2022/03/02 00:19:08;;;;;;;37.85;23.50;;;6.40;99.90;;;;;;5126937;27;20100;-67
2022/03/02 00:21:35;;;;;;;31.58;21.38;;;6.40;99.90;;;;;;5148805;27;20376;-67
2022/03/02 00:24:03;;;;;;;34.03;22.63;;;6.40;99.90;;;;;;5149892;27;20054;-67
2022/03/02 00:26:32;;;;;;;34.58;22.95;;;6.40;99.90;;;;;;5128612;27;20046;-67
2022/03/02 00:28:58;;;;;;;37.40;22.55;;;6.40;99.90;;;;;;5149690;27;20125;-67
2022/03/02 00:31:24;;;;;;;37.13;22.52;;;6.40;99.90;;;;;;5116014;28;20130;-67
2022/03/02 00:33:51;;;;;;;37.22;22.30;;;6.40;99.90;;;;;;5142163;27;20088;-67
2022/03/02 00:36:16;;;;;;;35.58;21.90;;;6.40;99.90;;;;;;5148318;27;20038;-67
2022/03/02 00:38:42;;;;;;;37.28;22.50;;;6.40;99.90;;;;;;5132639;27;20046;-68
2022/03/02 00:41:08;;;;;;;36.67;22.80;;;6.80;99.90;;;;;;5152605;27;20174;-67
2022/03/02 00:43:34;;;;;;;37.88;22.58;;;6.30;99.90;;;;;;5152861;27;20055;-68
2022/03/02 00:45:59;;;;;;;38.05;22.67;;;6.40;99.90;;;;;;5153325;27;20043;-68
2022/03/02 00:48:25;;;;;;;36.13;22.83;;;6.30;99.90;;;;;;5132228;27;20054;-68
2022/03/02 00:50:51;;;;;;;35.47;22.92;;;6.30;99.90;;;;;;5152386;27;20159;-67
2022/03/02 00:53:17;;;;;;;37.35;22.45;;;6.30;99.90;;;;;;5134396;27;20125;-67
2022/03/02 00:55:42;;;;;;;38.33;23.38;;;6.20;99.90;;;;;;5151822;27;20040;-67
2022/03/02 00:58:09;;;;;;;37.55;24.20;;;6.30;99.90;;;;;;5134214;27;20058;-67
2022/03/02 01:00:35;;;;;;;38.25;24.23;;;6.30;99.90;;;;;;5151947;27;20043;-68
2022/03/02 01:03:01;;;;;;;37.75;23.35;;;6.30;99.90;;;;;;5129153;27;20399;-67
2022/03/02 01:05:27;;;;;;;40.15;24.42;;;6.30;99.90;;;;;;5151285;27;20039;-67
2022/03/02 01:07:52;;;;;;;40.05;23.77;;;6.20;99.90;;;;;;5151735;27;20054;-67
2022/03/02 01:10:19;;;;;;;38.58;24.13;;;6.90;99.90;;;;;;5152775;27;20042;-67
2022/03/02 01:12:44;;;;;;;40.30;24.83;;;6.20;99.90;;;;;;5133172;27;20081;-68
2022/03/02 01:15:11;;;;;;;42.90;25.33;;;6.20;99.90;;;;;;5133854;27;20086;-67
2022/03/02 01:17:38;;;;;;;38.45;24.42;;;6.20;99.90;;;;;;5150418;27;20488;-68
2022/03/02 01:20:07;;;;;;;41.40;24.60;;;6.20;99.90;;;;;;5152585;27;20031;-67
2022/03/02 01:22:33;;;;;;;38.88;24.50;;;6.10;99.90;;;;;;5153125;27;20391;-67
2022/03/02 01:24:59;;;;;;;40.63;24.70;;;6.10;99.90;;;;;;5136220;27;20042;-67
2022/03/02 01:27:25;;;;;;;40.42;25.30;;;6.20;99.90;;;;;;5153478;27;20395;-68
2022/03/02 01:29:51;;;;;;;41.92;25.58;;;6.10;99.90;;;;;;5132880;27;20038;-68
2022/03/02 01:32:17;;;;;;;42.15;26.25;;;6.10;99.90;;;;;;5132771;27;20142;-67
2022/03/02 01:34:43;;;;;;;41.22;24.63;;;6.10;99.90;;;;;;5151534;27;20074;-67
2022/03/02 01:37:09;;;;;;;39.22;25.48;;;6.10;99.90;;;;;;5144487;27;20111;-68
2022/03/02 01:39:35;;;;;;;40.63;24.92;;;6.10;99.90;;;;;;5151566;27;20046;-68
2022/03/02 01:42:00;;;;;;;42.13;26.33;;;6.00;99.90;;;;;;5133365;27;20046;-68
2022/03/02 01:44:26;;;;;;;44.47;26.20;;;6.00;99.90;;;;;;5151687;27;20127;-68
2022/03/02 01:46:52;;;;;;;41.05;25.98;;;6.00;99.90;;;;;;5151197;27;20125;-67
2022/03/02 01:49:17;;;;;;;40.50;25.50;;;6.00;99.90;;;;;;5150300;27;20062;-68
2022/03/02 01:51:43;;;;;;;41.65;26.00;;;5.90;99.90;;;;;;5131949;27;20046;-68
2022/03/02 01:54:09;;;;;;;39.65;24.50;;;5.90;99.90;;;;;;5132957;27;20052;-68
2022/03/02 01:56:35;;;;;;;46.00;25.38;;;6.00;99.90;;;;;;5151315;27;20050;-68
2022/03/02 01:59:02;;;;;;;40.58;25.60;;;5.90;99.90;;;;;;5151440;27;20070;-68
2022/03/02 02:01:29;;;;;;;43.92;27.02;;;5.90;99.90;;;;;;5132694;27;20397;-68
2022/03/02 02:03:55;;;;;;;42.05;26.42;;;5.90;99.90;;;;;;5150481;27;20039;-68
2022/03/02 02:06:21;;;;;;;40.85;25.88;;;5.90;99.90;;;;;;5150991;27;20038;-68
2022/03/02 02:08:46;;;;;;;40.03;26.15;;;5.90;99.90;;;;;;5150701;27;20082;-68
2022/03/02 02:11:13;;;;;;;42.00;26.90;;;5.80;99.90;;;;;;5151082;27;20111;-68
2022/03/02 02:13:39;;;;;;;41.25;26.20;;;5.80;99.90;;;;;;5151157;27;20099;-68
2022/03/02 02:16:07;;;;;;;42.95;27.15;;;5.80;99.90;;;;;;5132785;27;20031;-68
2022/03/02 02:18:33;;;;;;;43.47;25.58;;;5.80;99.90;;;;;;5148880;27;20038;-68
2022/03/02 02:21:07;;;;;;;47.13;25.90;;;5.80;99.90;;;;;;5151489;27;20046;-68
2022/03/02 02:23:37;;;;;;;42.17;25.02;;;5.80;99.90;;;;;;5150815;27;20031;-68
2022/03/02 02:26:04;;;;;;;40.78;25.60;;;5.80;99.90;;;;;;5122047;27;20095;-68
2022/03/02 02:28:30;;;;;;;44.45;26.73;;;6.10;99.90;;;;;;5129912;27;20415;-68
2022/03/02 02:30:58;;;;;;;44.80;27.38;;;5.70;99.90;;;;;;5145071;27;20045;-68
2022/03/02 02:33:24;;;;;;;44.78;26.55;;;5.70;99.90;;;;;;5149204;27;20051;-68
2022/03/02 02:35:50;;;;;;;46.25;27.65;;;5.70;99.90;;;;;;5131377;27;20533;-68
2022/03/02 02:38:17;;;;;;;48.42;28.33;;;5.60;99.90;;;;;;5114864;27;20126;-68
2022/03/02 02:40:43;;;;;;;48.70;28.65;;;5.50;99.90;;;;;;5150116;27;20035;-68
2022/03/02 02:43:10;;;;;;;45.47;27.60;;;5.40;99.90;;;;;;5150997;27;20098;-68
2022/03/02 02:45:35;;;;;;;49.58;28.77;;;5.70;99.90;;;;;;5150419;27;20466;-68
2022/03/02 02:48:02;;;;;;;46.15;29.30;;;5.30;99.90;;;;;;5149188;27;20062;-68
2022/03/02 02:50:30;;;;;;;49.88;29.58;;;5.20;99.90;;;;;;5150001;27;20053;-68
2022/03/02 02:52:57;;;;;;;46.70;27.90;;;5.20;99.90;;;;;;5150603;27;20050;-68
2022/03/02 02:55:25;;;;;;;50.40;28.58;;;5.10;99.90;;;;;;5149531;27;20046;-68
2022/03/02 02:57:52;;;;;;;51.28;28.88;;;5.10;99.90;;;;;;5131731;27;20179;-68
2022/03/02 03:00:19;;;;;;;49.30;29.38;;;4.90;99.90;;;;;;5149763;27;20379;-68
2022/03/02 03:02:47;;;;;;;49.83;29.77;;;4.90;99.90;;;;;;5130081;27;20046;-68
2022/03/02 03:05:16;;;;;;;53.53;30.35;;;4.90;99.90;;;;;;5150213;27;20122;-68
2022/03/02 03:07:43;;;;;;;51.30;29.13;;;4.80;99.90;;;;;;5130496;27;20043;-69
2022/03/02 03:10:11;;;;;;;53.72;29.13;;;4.70;99.90;;;;;;5150310;27;20133;-69
2022/03/02 03:12:36;;;;;;;49.08;27.95;;;5.60;99.90;;;;;;5150273;27;20038;-69
2022/03/02 03:15:04;;;;;;;52.88;30.45;;;4.60;99.90;;;;;;5150407;27;20046;-69
2022/03/02 03:17:30;;;;;;;52.63;29.98;;;4.60;99.90;;;;;;5147549;27;20058;-69
2022/03/02 03:19:55;;;;;;;52.40;29.52;;;4.60;99.90;;;;;;5150401;27;20046;-66
2022/03/02 03:22:21;;;;;;;50.47;29.13;;;4.50;99.90;;;;;;5148636;27;20099;-67
2022/03/02 03:24:47;;;;;;;51.50;29.40;;;4.50;99.90;;;;;;5150194;27;20049;-67
2022/03/02 03:27:12;;;;;;;49.97;29.50;;;4.50;99.90;;;;;;5150121;27;20057;-67
2022/03/02 03:29:38;;;;;;;53.97;29.80;;;4.40;99.90;;;;;;5148446;27;20046;-67
2022/03/02 03:32:04;;;;;;;52.05;29.65;;;4.40;99.90;;;;;;5149413;27;20113;-69
2022/03/02 03:34:30;;;;;;;54.40;30.60;;;4.40;99.90;;;;;;5130300;27;20056;-69
2022/03/02 03:36:56;;;;;;;51.22;29.23;;;4.30;99.90;;;;;;5148916;27;20042;-69
2022/03/02 03:39:21;;;;;;;53.30;30.13;;;4.30;99.90;;;;;;5150077;27;20403;-69
2022/03/02 03:41:47;;;;;;;49.75;29.83;;;4.20;99.90;;;;;;5149279;27;20062;-69
2022/03/02 03:44:12;;;;;;;51.90;29.27;;;4.20;99.90;;;;;;5149629;27;20074;-69
2022/03/02 03:46:38;;;;;;;49.88;29.52;;;4.20;99.90;;;;;;5149385;27;20467;-67
2022/03/02 03:49:04;;;;;;;50.03;29.35;;;4.20;99.90;;;;;;5130600;27;20039;-68
2022/03/02 03:51:29;;;;;;;50.92;29.63;;;4.20;99.90;;;;;;5148184;27;20534;-68
2022/03/02 03:53:55;;;;;;;50.53;29.20;;;4.10;99.90;;;;;;5149344;27;20117;-68
2022/03/02 03:56:21;;;;;;;50.63;29.10;;;4.10;99.90;;;;;;5150488;27;20522;-67
2022/03/02 03:58:47;;;;;;;49.63;29.20;;;4.00;99.90;;;;;;5131316;27;20502;-67
2022/03/02 04:01:12;;;;;;;51.22;29.00;;;4.00;99.90;;;;;;5149106;27;20039;-67
2022/03/02 04:03:38;;;;;;;47.80;28.33;;;3.90;99.90;;;;;;5147270;27;20348;-68
2022/03/02 04:06:04;;;;;;;49.92;29.13;;;3.90;99.90;;;;;;5151240;27;20575;-67
2022/03/02 04:08:29;;;;;;;46.53;27.52;;;3.90;99.90;;;;;;5151583;27;20047;-67
2022/03/02 04:10:55;;;;;;;44.22;28.10;;;3.90;99.90;;;;;;5132001;27;20096;-67
2022/03/02 04:13:21;;;;;;;47.00;28.95;;;3.90;99.90;;;;;;5132947;27;20039;-68
2022/03/02 04:15:47;;;;;;;48.17;28.60;;;3.80;99.90;;;;;;5153426;27;20037;-67
2022/03/02 04:18:12;;;;;;;51.38;28.38;;;3.80;99.90;;;;;;5153602;27;20175;-67
2022/03/02 04:20:39;;;;;;;49.95;29.42;;;4.00;99.90;;;;;;5135554;27;20103;-67
2022/03/02 04:23:05;;;;;;;48.05;29.13;;;3.80;99.90;;;;;;5153359;27;20421;-67
2022/03/02 04:25:31;;;;;;;49.22;29.38;;;3.70;99.90;;;;;;5117469;27;20046;-68
2022/03/02 04:27:56;;;;;;;51.92;31.20;;;3.70;99.90;;;;;;5136125;27;20076;-67
2022/03/02 04:30:22;;;;;;;47.28;28.52;;;3.60;99.90;;;;;;5152904;27;20035;-67
2022/03/02 04:32:48;;;;;;;51.22;28.92;;;3.60;99.90;;;;;;5132668;27;20477;-67
2022/03/02 04:35:14;;;;;;;51.40;29.02;;;3.60;99.90;;;;;;5153700;27;20047;-67
2022/03/02 04:37:40;;;;;;;48.75;29.35;;;3.50;99.90;;;;;;5131380;27;20477;-67
2022/03/02 04:40:09;;;;;;;49.78;29.42;;;3.50;99.90;;;;;;5150878;27;20035;-67
2022/03/02 04:42:35;;;;;;;50.47;29.98;;;3.50;99.90;;;;;;5152303;27;20521;-67
2022/03/02 04:45:01;;;;;;;52.28;30.63;;;3.50;99.90;;;;;;5153922;27;20037;-67
2022/03/02 04:47:26;;;;;;;51.45;29.33;;;3.40;99.90;;;;;;5150421;27;20038;-67
2022/03/02 04:49:52;;;;;;;48.17;28.95;;;3.40;99.90;;;;;;5133643;27;20061;-67
2022/03/02 04:52:19;;;;;;;50.05;29.45;;;3.40;99.90;;;;;;5134201;27;20037;-67
2022/03/02 04:57:29;;;;;;;46.75;29.10;;;3.30;99.90;;;;;;5151572;27;20419;-67
2022/03/02 04:59:55;;;;;;;48.15;29.15;;;3.30;99.90;;;;;;5133923;27;20046;-67
2022/03/02 05:02:20;;;;;;;45.40;28.92;;;3.30;99.90;;;;;;5132824;27;20053;-67
2022/03/02 05:04:46;;;;;;;51.78;29.63;;;3.20;99.90;;;;;;5132158;27;20067;-67
2022/03/02 05:07:12;;;;;;;50.20;29.77;;;3.20;99.90;;;;;;5131372;27;20046;-67
2022/03/02 05:09:38;;;;;;;47.97;28.70;;;3.20;99.90;;;;;;5145567;27;20486;-67
2022/03/02 05:12:04;;;;;;;48.50;29.40;;;3.20;99.90;;;;;;5152425;27;20414;-67
2022/03/02 05:14:30;;;;;;;49.17;29.45;;;3.10;99.90;;;;;;5132721;27;20127;-67
2022/03/02 05:16:56;;;;;;;48.50;29.35;;;3.10;99.90;;;;;;5139467;27;20050;-68
2022/03/02 05:19:22;;;;;;;49.75;29.73;;;3.00;99.90;;;;;;5144132;27;20043;-68
2022/03/02 05:21:50;;;;;;;51.13;30.70;;;3.10;99.90;;;;;;5151020;27;20038;-68
2022/03/02 05:24:16;;;;;;;53.53;30.10;;;3.00;99.90;;;;;;5133871;27;20121;-68
2022/03/02 05:26:42;;;;;;;50.70;29.48;;;3.00;99.90;;;;;;5151714;27;20163;-68
2022/03/02 05:29:08;;;;;;;49.38;28.98;;;2.90;99.90;;;;;;5133294;27;20035;-68
2022/03/02 05:31:34;;;;;;;47.47;29.20;;;3.00;99.90;;;;;;5124428;27;20501;-68
2022/03/02 05:34:00;;;;;;;47.38;29.55;;;2.90;99.90;;;;;;5150695;27;20046;-69
2022/03/02 05:36:26;;;;;;;53.15;29.48;;;2.90;99.90;;;;;;5132385;27;20043;-68
2022/03/02 05:38:53;;;;;;;50.83;31.13;;;2.90;99.90;;;;;;5115689;27;20050;-68
2022/03/02 05:41:19;;;;;;;49.78;30.05;;;2.90;99.90;;;;;;5152016;27;20034;-68
2022/03/02 05:43:45;;;;;;;51.25;30.13;;;2.80;99.90;;;;;;5150591;27;20039;-69
2022/03/02 05:46:10;;;;;;;53.97;30.38;;;2.80;99.90;;;;;;5151643;27;20381;-68
2022/03/02 05:48:36;;;;;;;50.85;29.70;;;2.80;99.90;;;;;;5149833;27;20083;-68
2022/03/02 05:51:03;;;;;;;53.40;30.92;;;2.80;99.90;;;;;;5150756;27;20129;-68
2022/03/02 05:53:28;;;;;;;48.67;28.67;;;2.80;99.90;;;;;;5150960;27;20039;-68
2022/03/02 05:55:54;;;;;;;52.50;30.23;;;2.70;99.90;;;;;;5151177;27;20085;-68
2022/03/02 05:58:19;;;;;;;47.75;29.38;;;2.70;99.90;;;;;;5132498;27;20102;-68
2022/03/02 06:00:45;;;;;;;50.72;29.35;;;2.70;99.90;;;;;;5112041;27;20488;-68
2022/03/02 06:03:10;;;;;;;53.13;30.00;;;2.70;99.90;;;;;;5128099;27;20083;-68
2022/03/02 06:05:36;;;;;;;52.05;29.33;;;2.70;99.90;;;;;;5141551;27;20449;-68
2022/03/02 06:08:01;;;;;;;51.15;28.48;;;2.60;99.90;;;;;;5113835;27;20031;-68
2022/03/02 06:10:27;;;;;;;48.05;29.02;;;2.60;99.90;;;;;;5139254;27;20082;-68
2022/03/02 06:12:53;;;;;;;49.00;29.85;;;2.60;99.90;;;;;;5151277;27;20430;-69
2022/03/02 06:15:19;;;;;;;53.33;29.65;;;2.60;99.90;;;;;;5104113;27;20241;-68
2022/03/02 06:17:45;;;;;;;48.45;29.33;;;2.60;99.90;;;;;;5113075;27;20049;-68
2022/03/02 06:20:11;;;;;;;53.17;30.13;;;2.60;99.90;;;;;;5151866;27;20072;-65
2022/03/02 06:22:37;;;;;;;49.90;28.98;;;2.60;99.90;;;;;;5130980;27;20065;-65
2022/03/02 06:25:05;;;;;;;48.95;29.80;;;2.60;99.90;;;;;;5149549;27;20451;-65
2022/03/02 06:27:30;;;;;;;51.05;29.92;;;2.60;99.90;;;;;;5149640;27;20129;-64
2022/03/02 06:29:56;;;;;;;50.83;28.73;;;2.60;99.90;;;;;;5150115;27;20073;-66
2022/03/02 06:32:22;;;;;;;47.53;28.63;;;2.70;99.90;;;;;;5149984;27;20043;-66
2022/03/02 06:34:47;;;;;;;48.72;29.38;;;4.20;99.90;;;;;;5133985;27;20050;-64
2022/03/02 06:37:13;;;;;;;48.88;28.90;;;2.60;99.90;;;;;;5150676;27;20503;-65
2022/03/02 06:39:39;;;;;;;48.92;29.08;;;2.60;99.90;;;;;;5149171;27;20103;-65
2022/03/02 06:42:18;;;;;;;48.92;28.77;;;2.60;99.90;;;;;;5133978;27;20395;-65
2022/03/02 06:45:00;;;;;;;53.13;29.98;;;2.60;99.90;;;;;;5150854;27;20146;-65
2022/03/02 06:47:30;;;;;;;55.42;30.15;;;2.70;99.90;;;;;;5148014;27;20065;-65
2022/03/02 06:50:06;;;;;;;48.75;28.00;;;3.20;99.90;;;;;;5114052;27;20095;-65
2022/03/02 06:52:33;;;;;;;;;;;2.70;99.90;;;;;;5149362;27;20034;-65
2022/03/02 06:55:03;;;;;;;54.05;28.85;;;2.80;99.90;;;;;;5150104;27;20259;-65
2022/03/02 06:57:29;;;;;;;49.85;28.27;;;2.90;99.90;;;;;;5149110;27;20050;-65
2022/03/02 07:00:07;;;;;;;48.70;28.13;;;3.50;99.90;;;;;;5149469;27;20091;-65
2022/03/02 07:02:44;;;;;;;47.50;28.58;;;3.40;99.90;;;;;;5147996;27;20096;-65
2022/03/02 07:05:10;;;;;;;46.65;28.65;;;3.90;99.90;;;;;;5131685;27;20046;-65
2022/03/02 07:07:36;;;;;;;44.60;26.67;;;4.10;99.90;;;;;;5146716;27;20084;-66
2022/03/02 07:10:04;;;;;;;48.63;28.98;;;4.40;99.90;;;;;;5148988;27;20492;-65
2022/03/02 07:12:30;;;;;;;44.55;25.73;;;5.10;99.90;;;;;;5148773;27;20046;-66
2022/03/02 07:14:57;;;;;;;42.05;26.92;;;5.60;99.90;;;;;;5149367;27;20057;-65
2022/03/02 07:17:24;;;;;;;41.08;26.85;;;6.30;99.90;;;;;;5147700;27;20057;-65
2022/03/02 07:19:50;;;;;;;42.55;26.33;;;6.60;99.90;;;;;;5130645;27;20058;-65
2022/03/02 07:22:18;;;;;;;41.42;26.17;;;6.70;99.90;;;;;;5130379;27;20047;-65
2022/03/02 07:24:57;;;;;;;46.20;27.00;;;6.80;99.90;;;;;;5151917;27;20042;-65
2022/03/02 07:27:23;;;;;;;42.00;27.05;;;7.10;99.90;;;;;;5144383;27;20452;-66
2022/03/02 07:29:51;;;;;;;40.65;25.73;;;7.70;99.90;;;;;;5109888;27;20051;-65
2022/03/02 07:32:22;;;;;;;39.50;24.98;;;7.80;99.90;;;;;;5120051;27;20035;-66
2022/03/02 07:34:53;;;;;;;48.85;27.27;;;7.40;99.90;;;;;;5147474;27;20473;-65
2022/03/02 07:37:19;;;;;;;42.42;25.95;;;7.50;99.90;;;;;;5148731;27;20038;-65
2022/03/02 07:39:45;;;;;;;40.55;26.60;;;7.70;99.90;;;;;;5130635;27;20154;-66
2022/03/02 07:42:11;;;;;;;40.42;25.15;;;7.80;99.90;;;;;;5131422;27;20548;-65
2022/03/02 07:44:36;;;;;;;39.40;25.83;;;7.80;99.90;;;;;;5149400;27;20050;-65
2022/03/02 07:47:02;;;;;;;42.50;26.35;;;8.10;99.90;;;;;;5129444;27;20524;-65
2022/03/02 07:49:29;;;;;;;42.30;25.83;;;8.30;99.90;;;;;;5128215;27;20039;-65
2022/03/02 07:51:57;;;;;;;39.25;25.13;;;8.60;99.90;;;;;;5149559;27;20121;-66
2022/03/02 07:54:28;;;;;;;41.15;25.20;;;9.10;99.90;;;;;;5130082;27;20049;-65
2022/03/02 07:56:55;;;;;;;38.42;25.60;;;8.70;99.90;;;;;;5130104;27;20053;-65
2022/03/02 07:59:21;;;;;;;40.13;26.17;;;8.20;99.90;;;;;;5148715;27;20046;-65
2022/03/02 08:01:47;;;;;;;41.05;26.25;;;8.20;99.90;;;;;;5129879;27;20099;-65
2022/03/02 08:04:14;;;;;;;41.90;26.55;;;8.40;99.90;;;;;;5134355;27;20047;-65
2022/03/02 08:06:41;;;;;;;41.85;27.25;;;10.40;99.90;;;;;;5093728;28;20043;-65
2022/03/02 08:09:09;;;;;;;38.42;25.35;;;11.90;99.90;;;;;;5128577;28;20043;-65
2022/03/02 08:11:37;;;;;;;41.83;25.98;;;13.20;99.90;;;;;;5108950;28;20043;-66
2022/03/02 08:14:04;;;;;;;38.38;25.20;;;14.40;99.90;;;;;;5111173;27;20036;-66
2022/03/02 08:16:31;;;;;;;37.50;24.50;;;15.50;99.90;;;;;;5147923;27;20122;-65
2022/03/02 08:18:58;;;;;;;40.10;24.95;;;16.40;99.90;;;;;;5147552;27;20038;-66
2022/03/02 08:21:30;;;;;;;35.28;24.45;;;17.60;99.90;;;;;;5123646;27;20047;-65
2022/03/02 08:23:58;;;;;;;35.65;24.95;;;15.60;99.90;;;;;;5148215;27;20035;-65
2022/03/02 08:26:25;;;;;;;38.05;25.25;;;14.50;99.90;;;;;;5120183;28;20088;-67
2022/03/02 08:29:00;;;;;;;36.35;25.35;;;13.60;99.90;;;;;;5143992;27;20581;-65
2022/03/02 08:31:27;;;;;;;34.13;25.15;;;12.80;99.90;;;;;;5152031;27;20042;-65
2022/03/02 08:33:53;;;;;;;36.67;24.17;;;12.30;99.90;;;;;;5147451;27;20047;-65
2022/03/02 08:36:23;;;;;;;39.53;26.40;;;11.90;99.90;;;;;;5148422;27;20061;-65
2022/03/02 08:38:52;;;;;;;36.28;25.50;;;11.50;99.90;;;;;;5111903;27;20027;-66
2022/03/02 08:41:19;;;;;;;39.45;25.75;;;11.50;99.90;;;;;;5148643;27;20134;-65
2022/03/02 08:43:49;;;;;;;36.70;25.13;;;13.50;99.90;;;;;;5124412;27;20437;-65
2022/03/02 08:46:15;;;;;;;37.28;25.50;;;14.90;99.90;;;;;;5130278;27;20046;-66
2022/03/02 08:48:41;;;;;;;35.53;24.67;;;17.20;99.90;;;;;;5137957;27;20122;-66
2022/03/02 08:51:07;;;;;;;36.60;23.95;;;17.80;97.20;;;;;;5118499;27;20559;-67
2022/03/02 08:53:33;;;;;;;36.97;24.25;;;18.90;95.10;;;;;;5132550;27;20058;-66
2022/03/02 08:56:03;;;;;;;34.65;23.48;;;19.80;93.70;;;;;;5127577;28;20530;-67
2022/03/02 08:58:29;;;;;;;35.97;24.15;;;20.60;90.70;;;;;;5127327;27;20501;-67
2022/03/02 09:00:59;;;;;;;34.45;23.63;;;21.40;87.60;;;;;;5152660;27;20039;-66
2022/03/02 09:03:25;;;;;;;30.73;22.65;;;22.10;79.00;;;;;;5151406;27;20042;-66
2022/03/02 09:05:51;;;;;;;31.67;22.02;;;22.50;73.90;;;;;;5132348;27;20309;-66
2022/03/02 09:08:17;;;;;;;28.33;22.38;;;23.00;72.90;;;;;;5151496;27;20035;-67
2022/03/02 09:10:44;;;;;;;30.13;22.75;;;23.40;66.70;;;;;;5133407;27;20043;-67
2022/03/02 09:13:11;;;;;;;31.05;22.10;;;23.70;62.60;;;;;;5150427;27;20399;-67
2022/03/02 09:15:37;;;;;;;31.85;22.50;;;24.00;62.00;;;;;;5132842;27;20398;-67
2022/03/02 09:18:06;;;;;;;28.83;22.02;;;24.80;58.40;;;;;;5149757;27;20035;-67
2022/03/02 09:20:33;;;;;;;28.67;22.00;;;24.90;56.00;;;;;;5151264;27;20065;-67
2022/03/02 09:23:02;;;;;;;26.13;21.58;;;25.30;56.30;;;;;;5115575;27;20134;-67
2022/03/02 09:25:30;;;;;;;28.33;21.27;;;25.60;54.10;;;;;;5150897;27;20145;-67
2022/03/02 09:27:56;;;;;;;29.08;21.98;;;26.30;54.10;;;;;;5131835;27;20055;-67
2022/03/02 09:30:23;;;;;;;28.15;21.27;;;26.30;51.60;;;;;;5152569;27;20493;-67
2022/03/02 09:32:53;;;;;;;28.67;21.90;;;26.40;51.50;;;;;;5150722;27;20359;-67
2022/03/02 09:35:21;;;;;;;28.33;21.25;;;26.80;50.40;;;;;;5152743;27;20126;-65
2022/03/02 09:37:53;;;;;;;26.70;21.77;;;27.20;49.50;;;;;;5151251;27;20046;-66
2022/03/02 09:40:24;;;;;;;27.92;21.65;;;27.40;49.00;;;;;;5133151;27;20066;-67
2022/03/02 09:43:13;;;;;;;27.67;20.27;;;27.60;49.70;;;;;;5116715;27;20083;-67
2022/03/02 09:45:42;;;;;;;27.10;22.08;;;28.20;47.20;;;;;;5095337;27;20055;-66
2022/03/02 09:48:15;;;;;;;27.00;21.65;;;28.20;46.10;;;;;;5129149;27;20072;-67
2022/03/02 09:50:42;;;;;;;27.58;21.15;;;28.40;46.30;;;;;;5130397;27;20126;-66
2022/03/02 09:53:13;;;;;;;31.75;21.63;;;28.70;46.30;;;;;;5111899;27;20061;-68
2022/03/02 09:55:40;;;;;;;25.88;20.42;;;29.20;45.60;;;;;;5129838;27;20448;-67
2022/03/02 09:58:06;;;;;;;26.67;20.42;;;29.20;44.10;;;;;;5130439;27;20113;-67
2022/03/02 10:00:33;;;;;;;26.70;20.48;;;29.10;43.70;;;;;;5130223;27;20043;-67
2022/03/02 10:03:01;;;;;;;27.15;21.52;;;29.10;43.60;;;;;;5111599;27;20055;-67
2022/03/02 10:05:30;;;;;;;28.40;20.17;;;29.10;43.40;;;;;;5130616;27;20092;-68
2022/03/02 10:08:02;;;;;;;26.63;20.75;;;29.40;42.50;;;;;;5129661;27;20035;-67
2022/03/02 10:10:32;;;;;;;25.35;20.92;;;29.80;42.10;;;;;;5093407;27;20129;-68
2022/03/02 10:13:01;;;;;;;25.33;21.25;;;30.00;42.30;;;;;;5130545;27;20042;-69
2022/03/02 10:15:30;;;;;;;25.15;20.25;;;30.20;42.00;;;;;;5130120;27;20053;-66
2022/03/02 10:17:59;;;;;;;24.10;19.98;;;30.40;42.80;;;;;;5110565;27;20039;-66
2022/03/02 10:20:27;;;;;;;24.67;20.10;;;30.90;41.40;;;;;;5131034;27;20049;-66
2022/03/02 10:22:52;;;;;;;26.15;20.98;;;31.00;41.70;;;;;;5113267;27;20074;-66
2022/03/02 10:25:22;;;;;;;24.98;20.30;;;31.50;41.40;;;;;;5131984;27;20483;-67
2022/03/02 10:28:02;;;;;;;22.70;19.10;;;31.50;40.20;;;;;;5129441;27;20328;-66
2022/03/02 10:30:37;;;;;;;23.67;19.45;;;32.00;40.10;;;;;;5129841;27;20268;-67
2022/03/02 10:33:21;;;;;;;24.40;19.50;;;32.20;39.40;;;;;;5149985;27;20067;-66
2022/03/02 10:35:51;;;;;;;27.08;20.13;;;32.40;39.30;;;;;;5149170;27;20402;-66
2022/03/02 10:38:55;;;;;;;25.80;19.92;;;32.40;39.50;;;;;;5150453;27;20168;-66
2022/03/02 10:41:21;;;;;;;26.48;19.80;;;32.60;39.90;;;;;;5106954;27;20055;-66
2022/03/02 10:43:58;;;;;;;25.90;19.70;;;33.10;38.60;;;;;;5120860;27;20047;-67
2022/03/02 10:46:26;;;;;;;26.40;20.27;;;33.20;38.60;;;;;;5128997;27;20198;-70
2022/03/02 10:49:16;;;;;;;25.05;19.33;;;33.30;38.70;;;;;;5109420;27;20099;-67
2022/03/02 10:51:44;;;;;;;24.02;19.90;;;33.70;37.50;;;;;;5127619;27;20101;-74
2022/03/02 10:54:21;;;;;;;27.63;21.17;;;34.40;43.60;;;;;;5111941;27;20039;-76
2022/03/02 10:56:51;;;;;;;25.02;20.20;;;34.60;44.20;;;;;;5128803;27;20055;-73
2022/03/02 10:59:21;;;;;;;25.90;20.02;;;34.90;43.70;;;;;;5129521;27;20103;-79
2022/03/02 11:01:49;;;;;;;21.85;18.65;;;34.90;41.90;;;;;;5110099;27;20081;-78
2022/03/02 11:04:21;;;;;;;25.05;19.58;;;35.30;38.40;;;;;;5130064;27;20043;-79
2022/03/02 11:06:47;;;;;;;23.88;19.58;;;35.30;38.90;;;;;;5128480;27;20390;-78
2022/03/02 11:09:16;;;;;;;24.88;19.13;;;35.80;37.60;;;;;;5129105;27;20039;-80
2022/03/02 11:11:43;;;;;;;22.80;18.88;;;36.10;36.60;;;;;;5109597;27;20047;-81
2022/03/02 11:14:09;;;;;;;23.88;18.20;;;36.60;36.80;;;;;;5110996;27;20039;-83
2022/03/02 11:16:35;;;;;;;28.85;20.15;;;37.00;36.10;;;;;;5109066;27;20054;-84
2022/03/02 11:19:13;;;;;;;22.52;18.15;;;37.30;35.70;;;;;;5127559;27;20139;-81
2022/03/02 11:21:41;;;;;;;20.33;16.92;;;37.60;35.60;;;;;;5109003;27;20047;-82
2022/03/02 11:24:09;;;;;;;22.65;18.00;;;37.60;35.10;;;;;;5110771;27;20152;-82
2022/03/02 11:26:37;;;;;;;20.88;17.15;;;37.60;34.50;;;;;;5127719;27;20464;-82
2022/03/02 11:29:10;;;;;;;23.13;17.80;;;37.50;34.50;;;;;;5128682;27;20127;-82
2022/03/02 11:31:50;;;;;;;20.45;16.90;;;37.40;34.20;;;;;;5128765;27;20598;-82
2022/03/02 11:34:20;;;;;;;19.40;16.02;;;37.60;33.40;;;;;;5110142;28;20043;-82
2022/03/02 11:36:59;;;;;;;20.13;16.88;;;37.10;33.50;;;;;;5127719;27;20363;-82
2022/03/02 11:39:27;;;;;;;21.25;16.45;;;37.30;33.40;;;;;;5129452;27;20126;-82
2022/03/02 11:41:55;;;;;;;25.75;18.55;;;37.50;33.20;;;;;;5128597;27;20054;-81
2022/03/02 11:44:28;;;;;;;22.45;17.27;;;37.30;33.00;;;;;;5109987;27;20070;-82
2022/03/02 11:46:54;;;;;;;19.83;16.38;;;37.80;33.20;;;;;;5109317;28;20103;-82
2022/03/02 11:49:20;;;;;;;23.33;17.88;;;37.70;33.10;;;;;;5109064;27;20134;-73
2022/03/02 11:52:06;;;;;;;17.83;15.02;;;37.90;33.10;;;;;;5109261;28;20057;-72
2022/03/02 11:54:59;;;;;;;17.83;15.07;;;37.60;33.00;;;;;;5109111;28;20047;-71
2022/03/02 11:57:27;;;;;;;18.55;15.57;;;37.80;33.10;;;;;;5108799;28;20134;-72
2022/03/02 12:00:14;;;;;;;20.15;14.68;;;37.50;33.20;;;;;;5109844;28;20046;-72
2022/03/02 12:02:52;;;;;;;17.27;14.10;;;37.70;33.00;;;;;;5108828;28;20085;-72
2022/03/02 12:05:22;;;;;;;16.67;14.50;;;37.70;32.20;;;;;;5110481;28;20067;-72
2022/03/02 12:07:59;;;;;;;17.08;14.23;;;37.80;31.90;;;;;;5126226;28;20091;-72
2022/03/02 12:10:27;;;;;;;16.35;14.40;;;36.80;31.80;;;;;;5110278;28;20078;-72
2022/03/02 12:12:54;;;;;;;16.65;14.80;;;37.20;32.80;;;;;;5128773;28;20043;-72
2022/03/02 12:15:21;;;;;;;16.70;14.30;;;37.70;31.70;;;;;;5109978;28;20166;-73
2022/03/02 12:17:49;;;;;;;16.85;13.90;;;38.00;31.80;;;;;;5109902;27;20254;-72
2022/03/02 12:20:17;;;;;;;17.45;15.38;;;38.10;31.60;;;;;;5131205;27;20050;-71
2022/03/02 12:22:52;;;;;;;24.40;18.00;;;38.00;31.50;;;;;;5128337;27;20031;-71
2022/03/02 12:25:23;;;;;;;25.27;19.70;;;36.20;31.50;;;;;;5148493;27;20367;-72
2022/03/02 12:27:58;;;;;;;22.27;17.10;;;35.50;31.80;;;;;;5138746;27;20122;-71
2022/03/02 12:30:24;;;;;;;19.27;16.00;;;33.70;32.00;;;;;;5112316;28;20043;-71
2022/03/02 12:32:53;;;;;;;20.20;16.50;;;31.20;32.40;;;;;;5105932;28;20051;-74
2022/03/02 12:35:26;;;;;;;21.35;16.23;;;29.10;33.40;;;;;;5109610;27;20433;-74
2022/03/02 12:37:55;;;;;;;20.17;16.67;;;27.10;34.40;;;;;;5118753;27;20047;-73
2022/03/02 12:40:22;;;;;;;21.42;16.83;;;25.50;35.40;;;;;;5112679;27;20064;-74